createdAt,value
2023-07-20T00:03:26.544Z,2.23
2023-07-20T00:07:28.266Z,1.98
2023-07-20T00:11:30.030Z,2.10
2023-07-20T00:15:31.746Z,2.22
2023-07-20T00:19:33.616Z,1.92
2023-07-20T00:23:36.482Z,1.90
2023-07-20T00:31:40.291Z,2.38
2023-07-20T00:35:42.023Z,2.38
2023-07-20T00:39:43.693Z,2.40
2023-07-20T00:43:45.386Z,2.08
2023-07-20T00:47:47.595Z,1.98
2023-07-20T00:51:50.843Z,2.20
2023-07-20T00:55:52.783Z,1.95
2023-07-20T00:59:55.043Z,1.87
2023-07-20T01:03:56.766Z,2.22
2023-07-20T01:08:03.735Z,2.40
2023-07-20T01:12:13.275Z,2.30
2023-07-20T01:16:14.963Z,2.42
2023-07-20T01:20:19.158Z,2.78
2023-07-20T01:24:32.530Z,2.17
2023-07-20T01:29:09.178Z,1.98
2023-07-20T01:33:14.517Z,2.60
2023-07-20T01:37:18.031Z,2.83
2023-07-20T01:41:20.075Z,2.58
2023-07-20T01:45:22.109Z,2.75
2023-07-20T01:49:23.884Z,2.60
2023-07-20T01:53:25.564Z,2.40
2023-07-20T01:57:27.263Z,2.60
2023-07-20T02:01:29.994Z,2.58
2023-07-20T02:09:33.638Z,2.83
2023-07-20T02:13:35.404Z,2.20
2023-07-20T02:17:37.188Z,2.75
2023-07-20T02:21:40.220Z,3.13
2023-07-20T02:25:42.166Z,2.53
2023-07-20T02:29:44.006Z,2.45
2023-07-20T02:37:49.024Z,2.00
2023-07-20T02:41:51.655Z,1.98
2023-07-20T02:45:54.671Z,2.30
2023-07-20T02:49:56.378Z,2.67
2023-07-20T02:53:58.210Z,2.20
2023-07-20T02:57:59.984Z,2.00
2023-07-20T03:02:01.755Z,2.58
2023-07-20T03:06:03.587Z,2.38
2023-07-20T03:10:07.839Z,2.60
2023-07-20T03:14:09.548Z,2.65
2023-07-20T03:18:11.678Z,3.15
2023-07-20T03:22:13.447Z,2.33
2023-07-20T03:26:15.192Z,2.17
2023-07-20T03:30:17.004Z,2.10
2023-07-20T03:34:18.777Z,3.55
2023-07-20T03:38:21.269Z,2.50
2023-07-20T03:42:23.015Z,2.53
2023-07-20T03:46:25.111Z,3.10
2023-07-20T03:50:27.125Z,2.75
2023-07-20T03:54:28.796Z,2.50
2023-07-20T03:58:31.490Z,2.53
2023-07-20T04:02:33.744Z,2.55
2023-07-20T04:06:35.583Z,2.60
2023-07-20T04:10:37.306Z,2.53
2023-07-20T04:14:39.174Z,2.45
2023-07-20T04:18:40.946Z,2.20
2023-07-20T04:22:42.784Z,2.58
2023-07-20T04:26:47.604Z,2.58
2023-07-20T04:30:52.458Z,3.08
2023-07-20T04:34:54.794Z,2.70
2023-07-20T04:38:56.827Z,2.30
2023-07-20T04:42:58.931Z,2.33
2023-07-20T04:47:01.058Z,2.35
2023-07-20T04:51:04.602Z,2.75
2023-07-20T04:55:06.756Z,2.25
2023-07-20T04:59:08.755Z,2.07
2023-07-20T05:03:10.676Z,2.15
2023-07-20T05:07:12.763Z,2.07
2023-07-20T05:11:14.724Z,2.75
2023-07-20T05:15:16.723Z,2.20
2023-07-20T05:19:18.598Z,2.47
2023-07-20T05:23:23.728Z,2.63
2023-07-20T05:27:25.722Z,2.25
2023-07-20T05:31:27.682Z,2.60
2023-07-20T05:35:29.532Z,2.20
2023-07-20T05:39:33.676Z,2.15
2023-07-20T05:43:35.404Z,2.63
2023-07-20T05:47:38.763Z,2.95
2023-07-20T05:51:40.542Z,2.20
2023-07-20T05:55:42.537Z,3.40
2023-07-20T05:59:45.599Z,2.58
2023-07-20T06:03:47.480Z,2.40
2023-07-20T06:07:49.182Z,2.53
2023-07-20T06:11:51.205Z,2.17
2023-07-20T06:15:53.030Z,2.70
2023-07-20T06:19:54.744Z,2.05
2023-07-20T06:23:56.487Z,2.75
2023-07-20T06:27:58.598Z,2.95
2023-07-20T06:32:00.890Z,2.33
2023-07-20T06:36:02.647Z,2.67
2023-07-20T06:44:10.641Z,2.65
2023-07-20T06:48:12.419Z,2.30
2023-07-20T06:52:14.195Z,2.10
2023-07-20T06:56:16.384Z,2.58
2023-07-20T07:00:18.409Z,2.15
2023-07-20T07:04:21.557Z,2.20
2023-07-20T07:08:23.385Z,2.13
2023-07-20T07:12:25.241Z,2.25
2023-07-20T07:16:27.232Z,2.55
2023-07-20T07:20:29.293Z,2.20
2023-07-20T07:24:34.943Z,2.27
2023-07-20T07:28:37.790Z,2.22
2023-07-20T07:36:41.765Z,3.95
2023-07-20T07:40:44.096Z,2.40
2023-07-20T07:44:46.468Z,2.30
2023-07-20T07:48:48.914Z,2.13
2023-07-20T07:52:50.639Z,2.42
2023-07-20T07:56:54.764Z,2.80
2023-07-20T08:00:56.617Z,3.20
2023-07-20T08:04:58.714Z,2.47
2023-07-20T08:09:02.554Z,2.30
2023-07-20T08:13:04.765Z,2.03
2023-07-20T08:17:07.847Z,2.47
2023-07-20T08:21:09.891Z,2.55
2023-07-20T08:25:11.677Z,2.90
2023-07-20T08:29:13.369Z,1.95
2023-07-20T08:33:16.222Z,2.40
2023-07-20T08:37:18.092Z,2.40
2023-07-20T08:41:20.628Z,2.58
2023-07-20T08:45:23.580Z,2.25
2023-07-20T08:49:25.498Z,2.17
2023-07-20T08:53:29.770Z,1.73
2023-07-20T08:57:34.300Z,2.00
2023-07-20T09:01:40.795Z,2.47
2023-07-20T09:05:44.766Z,2.30
2023-07-20T09:09:48.659Z,1.80
2023-07-20T09:14:10.776Z,1.85
2023-07-20T09:18:12.528Z,1.77
2023-07-20T09:22:14.985Z,2.67
2023-07-20T09:26:17.798Z,2.10
2023-07-20T09:30:20.284Z,2.22
2023-07-20T09:38:27.574Z,1.92
2023-07-20T09:50:55.745Z,1.65
2023-07-20T09:54:58.762Z,1.38
2023-07-20T09:59:01.396Z,2.45
2023-07-20T10:03:05.188Z,2.72
2023-07-20T10:07:12.787Z,1.63
2023-07-20T10:11:17.216Z,1.60
2023-07-20T10:15:22.495Z,1.60
2023-07-20T10:19:50.592Z,1.90
2023-07-20T10:23:53.161Z,1.80
2023-07-20T10:27:56.159Z,1.42
2023-07-20T10:31:59.301Z,1.38
2023-07-20T10:36:08.927Z,1.52
2023-07-20T10:40:34.231Z,1.50
2023-07-20T10:44:38.698Z,2.00
2023-07-20T10:49:07.084Z,2.00
2023-07-20T10:53:13.840Z,2.25
2023-07-20T10:57:32.940Z,1.73
2023-07-20T11:01:37.937Z,1.58
2023-07-20T11:05:42.027Z,1.90
2023-07-20T11:09:46.796Z,1.58
2023-07-20T11:14:02.151Z,1.70
2023-07-20T11:18:16.045Z,1.38
2023-07-20T11:22:18.847Z,1.45
2023-07-20T11:26:20.747Z,1.90
2023-07-20T11:30:22.799Z,1.80
2023-07-20T11:34:25.639Z,1.63
2023-07-20T11:46:35.816Z,2.65
2023-07-20T11:50:41.190Z,1.60
2023-07-20T11:54:48.779Z,1.80
2023-07-20T11:58:51.402Z,1.95
2023-07-20T12:02:55.057Z,1.60
2023-07-20T12:06:56.969Z,1.50
2023-07-20T12:10:58.978Z,1.63
2023-07-20T12:15:21.299Z,1.60
2023-07-20T12:19:26.721Z,1.50
2023-07-20T12:23:35.895Z,1.67
2023-07-20T12:27:38.912Z,1.50
2023-07-20T12:31:40.907Z,1.50
2023-07-20T12:35:44.523Z,1.60
2023-07-20T12:39:48.308Z,1.40
2023-07-20T12:43:51.807Z,1.73
2023-07-20T12:47:53.564Z,1.77
2023-07-20T12:51:55.450Z,1.90
2023-07-20T12:55:57.263Z,1.50
2023-07-20T12:59:59.046Z,1.63
2023-07-20T13:12:11.827Z,1.58
2023-07-20T13:16:13.705Z,1.67
2023-07-20T13:20:15.789Z,1.80
2023-07-20T13:24:18.403Z,1.77
2023-07-20T13:28:20.220Z,1.63
2023-07-20T13:32:22.135Z,1.65
2023-07-20T13:36:24.603Z,1.80
2023-07-20T13:40:26.444Z,1.85
2023-07-20T13:44:30.560Z,1.73
2023-07-20T13:48:37.405Z,1.52
2023-07-20T13:52:42.480Z,1.67
2023-07-20T13:56:44.266Z,1.60
2023-07-20T14:00:46.237Z,2.25
2023-07-20T14:06:17.433Z,2.10
2023-07-20T14:09:14.811Z,1.73
2023-07-20T14:13:17.189Z,1.58
2023-07-20T14:17:19.091Z,1.50
2023-07-20T14:21:25.424Z,1.75
2023-07-20T14:25:29.689Z,1.75
2023-07-20T14:29:32.845Z,1.80
2023-07-20T14:33:36.309Z,1.67
2023-07-20T14:37:38.865Z,1.98
2023-07-20T14:41:41.263Z,1.70
2023-07-20T14:45:43.230Z,1.60
2023-07-20T14:49:45.832Z,1.90
2023-07-20T14:53:47.662Z,1.58
2023-07-20T15:01:55.860Z,1.63
2023-07-20T15:05:57.617Z,1.70
2023-07-20T15:09:59.489Z,1.75
2023-07-20T15:18:03.374Z,1.50
2023-07-20T15:22:09.859Z,1.63
2023-07-20T15:26:12.665Z,1.90
2023-07-20T15:30:50.253Z,1.55
2023-07-20T15:34:37.157Z,1.80
2023-07-20T15:38:39.589Z,1.55
2023-07-20T15:42:53.390Z,1.50
2023-07-20T15:46:56.050Z,1.60
2023-07-20T15:50:57.753Z,1.40
2023-07-20T15:54:59.523Z,1.40
2023-07-20T15:59:01.311Z,1.20
2023-07-20T16:03:03.171Z,1.38
2023-07-20T16:07:08.247Z,1.58
2023-07-20T16:11:10.282Z,1.23
2023-07-20T16:15:12.614Z,1.30
2023-07-20T16:23:16.131Z,1.42
2023-07-20T16:27:18.177Z,1.38
2023-07-20T16:31:19.977Z,1.60
2023-07-20T16:35:23.932Z,1.30
2023-07-20T16:39:47.760Z,1.83
2023-07-20T16:47:55.865Z,1.33
2023-07-20T16:51:58.714Z,1.70
2023-07-20T16:56:00.645Z,1.60
2023-07-20T17:00:02.983Z,2.53
2023-07-20T17:04:04.912Z,1.70
2023-07-20T17:08:06.775Z,1.45
2023-07-20T17:12:09.692Z,1.60
2023-07-20T17:16:11.932Z,1.85
2023-07-20T17:32:29.628Z,1.60
2023-07-20T17:40:37.479Z,1.70
2023-07-20T17:44:39.525Z,1.48
2023-07-20T17:48:41.460Z,1.27
2023-07-20T17:52:43.418Z,1.45
2023-07-20T17:56:45.498Z,2.05
2023-07-20T18:00:47.460Z,1.90
2023-07-20T18:04:49.155Z,1.45
2023-07-20T18:08:50.916Z,1.93
2023-07-20T18:12:53.466Z,1.40
2023-07-20T18:16:55.221Z,2.20
2023-07-20T18:20:56.979Z,2.57
2023-07-20T18:24:58.713Z,1.80
2023-07-20T18:29:02.483Z,1.73
2023-07-20T18:33:05.285Z,1.42
2023-07-20T18:37:07.114Z,1.60
2023-07-20T18:41:08.856Z,2.33
2023-07-20T18:45:10.833Z,1.70
2023-07-20T18:49:12.515Z,1.63
2023-07-20T18:53:14.409Z,1.70
2023-07-20T18:57:16.232Z,1.77
2023-07-20T19:01:18.107Z,1.60
2023-07-20T19:05:20.278Z,1.90
2023-07-20T19:09:22.636Z,1.75
2023-07-20T19:13:24.385Z,2.13
2023-07-20T19:17:26.931Z,1.93
2023-07-20T19:21:29.378Z,2.13
2023-07-20T19:25:32.669Z,2.30
2023-07-20T19:29:35.000Z,2.47
2023-07-20T19:33:36.907Z,2.20
2023-07-20T19:37:39.113Z,2.17
2023-07-20T19:41:40.831Z,2.10
2023-07-20T19:45:42.818Z,2.28
2023-07-20T19:49:44.556Z,2.63
2023-07-20T19:57:51.079Z,2.13
2023-07-20T20:01:52.851Z,2.95
2023-07-20T20:05:55.129Z,2.13
2023-07-20T20:09:57.109Z,2.33
2023-07-20T20:13:58.837Z,2.25
2023-07-20T20:18:01.149Z,2.30
2023-07-20T20:22:05.308Z,2.30
2023-07-20T20:26:08.402Z,2.30
2023-07-20T20:30:11.127Z,2.20
2023-07-20T20:34:12.814Z,2.38
2023-07-20T20:38:14.929Z,2.40
2023-07-20T20:42:16.886Z,2.57
2023-07-20T20:46:21.990Z,2.17
2023-07-20T20:50:24.215Z,2.15
2023-07-20T20:54:26.111Z,2.38
2023-07-20T20:58:28.008Z,2.17
2023-07-20T21:02:29.779Z,2.30
2023-07-20T21:06:31.786Z,2.15
2023-07-20T21:10:34.741Z,2.60
2023-07-20T21:14:36.611Z,2.38
2023-07-20T21:18:38.712Z,2.60
2023-07-20T21:22:41.420Z,2.40
2023-07-20T21:30:46.154Z,2.40
2023-07-20T21:34:47.948Z,2.80
2023-07-20T21:38:49.770Z,2.85
2023-07-20T21:42:52.514Z,2.10
2023-07-20T21:46:54.414Z,2.58
2023-07-20T21:50:56.930Z,2.37
2023-07-20T21:54:58.650Z,2.30
2023-07-20T21:59:00.543Z,2.35
2023-07-20T22:03:03.216Z,2.60
2023-07-20T22:07:14.954Z,2.72
2023-07-20T22:11:16.931Z,3.08
2023-07-20T22:15:18.832Z,2.47
2023-07-20T22:19:20.699Z,2.20
2023-07-20T22:23:22.829Z,2.65
2023-07-20T22:27:24.611Z,2.40
2023-07-20T22:31:26.680Z,2.70
2023-07-20T22:35:28.927Z,2.27
2023-07-20T22:39:33.137Z,2.63
2023-07-20T22:43:34.878Z,2.90
2023-07-20T22:47:39.787Z,2.85
2023-07-20T22:51:41.665Z,2.50
2023-07-20T22:55:47.806Z,2.75
2023-07-20T22:59:49.826Z,2.67
2023-07-20T23:03:51.776Z,2.47
2023-07-20T23:07:54.335Z,2.70
2023-07-20T23:12:02.334Z,2.60
2023-07-20T23:16:05.359Z,2.50
2023-07-20T23:20:19.293Z,2.72
2023-07-20T23:24:21.253Z,2.95
2023-07-20T23:28:26.141Z,2.70
2023-07-20T23:32:27.892Z,2.50
2023-07-20T23:36:29.738Z,2.92
2023-07-20T23:40:31.539Z,2.70
2023-07-20T23:44:33.732Z,2.72
2023-07-20T23:48:42.391Z,2.95
2023-07-20T23:52:45.189Z,3.03
2023-07-20T23:56:47.669Z,2.40
